createdAt,value
2022-08-14T00:04:34.345Z,69.80
2022-08-14T00:06:35.849Z,69.90
2022-08-14T00:18:30.776Z,71.10
2022-08-14T00:32:52.938Z,72.50
2022-08-14T00:37:06.179Z,73.60
2022-08-14T01:01:53.650Z,76.50
2022-08-14T01:08:20.622Z,77.20
2022-08-14T01:14:27.518Z,78.00
2022-08-14T01:23:56.184Z,79.00
2022-08-14T01:35:16.588Z,80.20
2022-08-14T01:37:07.497Z,80.80
2022-08-14T01:52:33.745Z,83.10
2022-08-14T01:58:20.127Z,84.00
2022-08-14T02:04:40.837Z,85.00
2022-08-14T02:06:34.514Z,85.40
2022-08-14T02:08:52.850Z,85.80
2022-08-14T02:37:03.603Z,90.90
2022-08-14T02:38:35.043Z,91.50
2022-08-14T02:58:05.872Z,94.30
2022-08-14T03:00:51.617Z,94.90
2022-08-14T03:14:00.500Z,95.70
2022-08-14T03:19:55.014Z,96.60
2022-08-14T03:22:04.495Z,97.10
2022-08-14T03:24:22.903Z,97.60
2022-08-14T03:26:31.047Z,98.00
2022-08-14T03:28:36.752Z,98.40
2022-08-14T03:30:46.356Z,98.80
2022-08-14T03:32:56.119Z,99.20
2022-08-14T03:35:10.761Z,99.50
2022-08-14T03:37:37.718Z,99.80
2022-08-14T03:39:42.791Z,99.90
2022-08-14T03:41:51.301Z,99.90
2022-08-14T03:44:01.583Z,99.90
2022-08-14T03:46:56.129Z,99.90
2022-08-14T03:59:17.620Z,99.90
2022-08-14T04:01:24.882Z,99.90
2022-08-14T04:03:40.532Z,99.90
2022-08-14T04:05:49.384Z,99.90
2022-08-14T04:08:08.164Z,99.90
2022-08-14T04:10:33.394Z,99.90
2022-08-14T04:12:42.896Z,99.90
2022-08-14T04:14:59.648Z,99.90
2022-08-14T04:17:12.756Z,99.90
2022-08-14T04:19:24.193Z,99.90
2022-08-14T04:21:30.927Z,99.90
2022-08-14T04:24:09.427Z,99.90
2022-08-14T04:26:42.484Z,99.90
2022-08-14T04:29:08.054Z,99.90
2022-08-14T04:33:00.412Z,99.90
2022-08-14T04:33:50.372Z,99.90
2022-08-14T04:36:02.155Z,99.90
2022-08-14T04:38:36.389Z,99.90
2022-08-14T04:40:55.850Z,99.90
2022-08-14T04:43:22.069Z,99.90
2022-08-14T04:55:09.598Z,99.90
2022-08-14T05:29:15.368Z,99.90
2022-08-14T05:37:50.838Z,99.90
2022-08-14T05:43:09.434Z,99.90
2022-08-14T05:45:33.254Z,99.90
2022-08-14T05:47:52.083Z,99.90
2022-08-14T05:50:17.308Z,99.90
2022-08-14T05:52:49.506Z,99.90
2022-08-14T05:55:04.868Z,99.90
2022-08-14T05:57:46.867Z,99.90
2022-08-14T06:00:24.744Z,99.90
2022-08-14T06:02:33.403Z,99.90
2022-08-14T06:04:45.582Z,99.90
2022-08-14T06:06:51.620Z,99.60
2022-08-14T06:08:57.628Z,99.30
2022-08-14T06:11:20.097Z,99.10
2022-08-14T06:13:31.822Z,99.20
2022-08-14T06:31:44.213Z,97.70
2022-08-14T06:35:09.852Z,97.10
2022-08-14T06:37:01.292Z,96.90
2022-08-14T06:39:39.626Z,96.60
2022-08-14T06:42:04.384Z,96.50
2022-08-14T06:44:47.780Z,96.40
2022-08-14T06:47:13.500Z,96.20
2022-08-14T06:49:57.668Z,95.80
2022-08-14T06:52:19.937Z,95.70
2022-08-14T07:01:27.121Z,95.20
2022-08-14T07:06:45.640Z,94.60
2022-08-14T07:08:53.819Z,94.40
2022-08-14T07:11:01.558Z,94.20
2022-08-14T07:13:13.646Z,94.10
2022-08-14T07:18:08.835Z,94.00
2022-08-14T07:20:33.642Z,93.90
2022-08-14T07:22:56.907Z,93.90
2022-08-14T07:25:25.977Z,93.60
2022-08-14T07:28:01.965Z,93.30
2022-08-14T07:30:33.835Z,93.20
2022-08-14T07:32:43.719Z,92.90
2022-08-14T07:35:00.856Z,92.80
2022-08-14T07:37:13.366Z,92.60
2022-08-14T07:39:43.370Z,92.40
2022-08-14T07:41:47.902Z,92.00
2022-08-14T07:44:02.900Z,91.70
2022-08-14T07:46:30.899Z,91.50
2022-08-14T07:48:44.988Z,91.10
2022-08-14T07:51:03.136Z,90.70
2022-08-14T07:53:39.361Z,90.50
2022-08-14T07:56:09.127Z,90.40
2022-08-14T07:58:51.624Z,90.20
2022-08-14T08:01:36.593Z,90.00
2022-08-14T08:04:24.007Z,90.00
2022-08-14T08:07:15.417Z,89.30
2022-08-14T08:09:47.457Z,90.00
2022-08-14T08:12:30.822Z,89.40
2022-08-14T08:15:19.133Z,89.00
2022-08-14T08:18:40.077Z,88.10
2022-08-14T08:21:53.473Z,86.70
2022-08-14T08:24:09.266Z,86.90
2022-08-14T08:32:08.904Z,86.30
2022-08-14T08:34:24.294Z,85.90
2022-08-14T08:36:29.957Z,85.00
2022-08-14T08:39:18.146Z,83.70
2022-08-14T08:41:05.623Z,83.80
2022-08-14T08:43:19.800Z,83.60
2022-08-14T08:45:51.288Z,83.10
2022-08-14T08:56:45.137Z,81.20
2022-08-14T09:02:28.721Z,81.50
2022-08-14T09:05:16.739Z,81.20
2022-08-14T09:11:18.780Z,80.60
2022-08-14T09:13:47.505Z,80.00
2022-08-14T09:15:59.493Z,79.80
2022-08-14T09:18:14.924Z,79.00
2022-08-14T09:23:01.439Z,78.90
2022-08-14T09:25:09.647Z,78.30
2022-08-14T09:27:27.172Z,78.00
2022-08-14T09:29:39.879Z,77.70
2022-08-14T09:31:57.284Z,77.00
2022-08-14T09:34:31.108Z,76.70
2022-08-14T09:36:51.758Z,75.00
2022-08-14T09:39:22.960Z,75.30
2022-08-14T09:42:20.385Z,75.50
2022-08-14T09:44:21.027Z,75.00
2022-08-14T09:46:56.954Z,74.20
2022-08-14T09:49:53.654Z,73.40
2022-08-14T09:52:54.131Z,72.20
2022-08-14T10:01:52.686Z,70.40
2022-08-14T10:04:00.908Z,68.30
2022-08-14T10:06:22.730Z,67.60
2022-08-14T10:11:05.164Z,68.10
2022-08-14T10:13:17.057Z,68.00
2022-08-14T10:15:27.818Z,67.60
2022-08-14T10:17:38.974Z,67.20
2022-08-14T10:19:59.742Z,66.60
2022-08-14T10:23:12.555Z,66.30
2022-08-14T10:24:54.508Z,65.60
2022-08-14T10:27:03.670Z,65.40
2022-08-14T10:29:23.661Z,64.70
2022-08-14T10:31:43.237Z,64.00
2022-08-14T10:34:01.500Z,63.70
2022-08-14T10:36:34.473Z,62.50
2022-08-14T10:38:59.481Z,62.40
2022-08-14T10:41:35.554Z,61.60
2022-08-14T10:44:21.381Z,61.60
2022-08-14T11:05:59.787Z,55.80
2022-08-14T11:08:38.591Z,54.80
2022-08-14T11:11:04.206Z,54.70
2022-08-14T11:22:56.414Z,54.30
2022-08-14T11:29:16.656Z,54.00
2022-08-14T11:31:38.616Z,54.00
2022-08-14T11:33:49.537Z,54.10
2022-08-14T11:38:26.025Z,54.20
2022-08-14T11:40:40.953Z,53.90
2022-08-14T11:42:59.413Z,53.40
2022-08-14T11:45:23.170Z,52.80
2022-08-14T11:48:12.860Z,52.20
2022-08-14T11:51:02.217Z,51.30
2022-08-14T11:53:35.240Z,49.20
2022-08-14T11:56:01.832Z,48.80
2022-08-14T11:58:23.899Z,48.50
2022-08-14T12:01:19.737Z,47.80
2022-08-14T12:04:32.085Z,47.60
2022-08-14T12:10:00.721Z,46.40
2022-08-14T12:13:10.078Z,46.30
2022-08-14T12:15:38.405Z,46.50
2022-08-14T12:17:56.687Z,46.40
2022-08-14T12:20:29.601Z,46.00
2022-08-14T12:22:37.157Z,45.80
2022-08-14T12:24:49.928Z,45.70
2022-08-14T12:27:00.287Z,45.50
2022-08-14T12:29:12.964Z,44.70
2022-08-14T12:50:54.418Z,43.10
2022-08-14T13:00:23.016Z,42.40
2022-08-14T13:02:35.267Z,41.70
2022-08-14T13:04:51.281Z,41.40
2022-08-14T13:07:08.853Z,40.20
2022-08-14T13:09:16.583Z,40.10
2022-08-14T13:11:25.265Z,40.30
2022-08-14T13:13:47.630Z,40.40
2022-08-14T13:16:03.937Z,40.20
2022-08-14T13:18:30.571Z,40.20
2022-08-14T13:20:36.022Z,39.60
2022-08-14T13:23:02.409Z,39.90
2022-08-14T13:25:19.783Z,39.50
2022-08-14T13:27:51.036Z,39.30
2022-08-14T13:30:10.210Z,39.20
2022-08-14T13:38:52.873Z,39.70
2022-08-14T13:41:48.348Z,39.60
2022-08-14T13:54:19.563Z,40.10
2022-08-14T13:59:57.866Z,38.90
2022-08-14T14:02:04.334Z,38.20
2022-08-14T14:04:21.203Z,38.00
2022-08-14T14:06:28.738Z,37.80
2022-08-14T14:08:47.884Z,37.80
2022-08-14T14:11:02.309Z,38.00
2022-08-14T14:13:18.104Z,38.60
2022-08-14T14:15:48.632Z,38.50
2022-08-14T14:18:04.397Z,38.40
2022-08-14T14:20:35.949Z,38.00
2022-08-14T14:23:01.506Z,37.90
2022-08-14T14:28:09.621Z,37.20
2022-08-14T14:30:52.111Z,37.10
2022-08-14T14:33:44.737Z,37.00
2022-08-14T14:35:53.403Z,36.80
2022-08-14T14:38:00.523Z,36.80
2022-08-14T14:40:52.305Z,36.80
2022-08-14T14:42:58.244Z,36.30
2022-08-14T14:45:16.800Z,35.70
2022-08-14T14:50:27.377Z,34.30
2022-08-14T14:53:19.929Z,34.70
2022-08-14T15:00:03.973Z,36.10
2022-08-14T15:03:07.964Z,36.80
2022-08-14T15:15:37.705Z,36.00
2022-08-14T15:18:38.442Z,35.00
2022-08-14T15:21:15.501Z,35.40
2022-08-14T15:29:53.222Z,36.10
2022-08-14T15:35:59.836Z,36.50
2022-08-14T15:44:25.577Z,38.20
2022-08-14T15:59:48.052Z,39.80
2022-08-14T16:05:05.661Z,38.20
2022-08-14T16:18:32.350Z,37.70
2022-08-14T16:20:52.637Z,37.30
2022-08-14T16:23:00.728Z,37.30
2022-08-14T16:25:18.310Z,37.20
2022-08-14T16:27:39.296Z,37.40
2022-08-14T16:30:04.207Z,37.50
2022-08-14T16:35:08.504Z,36.90
2022-08-14T16:37:37.362Z,37.10
2022-08-14T16:40:05.768Z,37.40
2022-08-14T16:43:02.500Z,37.80
2022-08-14T16:44:51.845Z,37.80
2022-08-14T16:47:05.738Z,37.70
2022-08-14T16:50:02.799Z,38.00
2022-08-14T16:52:43.669Z,38.40
2022-08-14T16:54:48.027Z,38.90
2022-08-14T16:57:05.021Z,39.00
2022-08-14T16:59:30.687Z,39.30
2022-08-14T17:02:41.708Z,39.40
2022-08-14T17:11:37.672Z,39.50
2022-08-14T17:16:41.422Z,40.00
2022-08-14T17:19:28.213Z,40.20
2022-08-14T17:21:47.507Z,40.80
2022-08-14T17:23:54.470Z,41.40
2022-08-14T17:28:51.569Z,41.60
2022-08-14T17:53:23.821Z,43.60
2022-08-14T18:01:06.809Z,44.30
2022-08-14T18:03:46.423Z,44.60
2022-08-14T18:06:07.142Z,44.90
2022-08-14T18:08:32.425Z,45.10
2022-08-14T18:10:55.869Z,45.40
2022-08-14T18:13:06.036Z,45.50
2022-08-14T18:15:17.859Z,45.70
2022-08-14T18:18:05.062Z,46.20
2022-08-14T18:21:39.634Z,46.50
2022-08-14T18:23:51.683Z,46.70
2022-08-14T18:26:36.154Z,47.40
2022-08-14T18:28:52.384Z,47.30
2022-08-14T18:37:19.332Z,47.40
2022-08-14T18:40:01.034Z,48.30
2022-08-14T18:48:14.754Z,49.20
2022-08-14T18:54:05.037Z,50.20
2022-08-14T18:56:48.774Z,51.00
2022-08-14T18:59:43.619Z,51.70
2022-08-14T19:02:52.980Z,52.10
2022-08-14T19:05:30.249Z,52.80
2022-08-14T19:08:11.369Z,53.30
2022-08-14T19:10:55.996Z,53.80
2022-08-14T19:16:26.475Z,54.20
2022-08-14T19:18:38.422Z,54.20
2022-08-14T19:20:58.157Z,54.10
2022-08-14T19:23:05.331Z,54.20
2022-08-14T19:25:36.955Z,54.30
2022-08-14T19:27:54.983Z,54.50
2022-08-14T19:30:57.889Z,54.70
2022-08-14T19:37:06.124Z,55.70
2022-08-14T19:40:15.112Z,56.00
2022-08-14T19:45:44.458Z,56.20
2022-08-14T19:47:53.839Z,56.20
2022-08-14T19:50:38.842Z,56.10
2022-08-14T19:52:55.762Z,56.10
2022-08-14T19:55:02.207Z,56.40
2022-08-14T19:57:29.191Z,56.70
2022-08-14T19:59:57.675Z,57.00
2022-08-14T20:16:32.013Z,57.10
2022-08-14T20:18:49.323Z,56.80
2022-08-14T20:20:57.802Z,56.70
2022-08-14T20:23:11.251Z,56.50
2022-08-14T20:25:23.380Z,56.50
2022-08-14T20:27:45.735Z,56.60
2022-08-14T20:30:33.861Z,56.70
2022-08-14T20:32:49.931Z,56.80
2022-08-14T20:35:00.870Z,57.00
2022-08-14T20:37:22.703Z,57.10
2022-08-14T20:39:34.024Z,57.50
2022-08-14T20:42:15.847Z,57.70
2022-08-14T20:44:45.388Z,57.70
2022-08-14T20:47:01.169Z,57.70
2022-08-14T20:49:45.977Z,57.90
2022-08-14T20:52:25.020Z,57.80
2022-08-14T20:54:50.359Z,58.00
2022-08-14T20:57:08.398Z,58.00
2022-08-14T20:59:50.060Z,58.10
2022-08-14T21:02:04.087Z,58.30
2022-08-14T21:04:56.812Z,58.30
2022-08-14T21:07:35.474Z,58.50
2022-08-14T21:10:35.358Z,58.50
2022-08-14T21:13:27.452Z,58.50
2022-08-14T21:15:44.413Z,58.60
2022-08-14T21:25:31.838Z,59.00
2022-08-14T21:28:54.380Z,59.10
2022-08-14T21:31:56.936Z,59.20
2022-08-14T21:37:31.086Z,59.20
2022-08-14T21:53:35.433Z,59.80
2022-08-14T22:15:38.805Z,60.80
2022-08-14T22:18:20.250Z,60.90
2022-08-14T22:20:33.025Z,61.20
2022-08-14T22:22:43.160Z,61.00
2022-08-14T22:25:18.131Z,60.90
2022-08-14T22:27:28.231Z,61.10
2022-08-14T22:29:54.770Z,61.40
2022-08-14T22:32:55.934Z,61.70
2022-08-14T22:35:02.248Z,61.80
2022-08-14T22:37:17.534Z,61.80
2022-08-14T22:40:46.121Z,61.80
2022-08-14T22:42:21.560Z,61.40
2022-08-14T22:44:44.570Z,61.40
2022-08-14T23:09:00.399Z,64.00
2022-08-14T23:19:46.932Z,63.80
2022-08-14T23:32:02.012Z,64.40
2022-08-14T23:34:20.311Z,64.40
2022-08-14T23:36:32.613Z,64.60
2022-08-14T23:38:50.342Z,64.70
2022-08-14T23:41:04.125Z,64.30
2022-08-14T23:43:10.425Z,64.40
2022-08-14T23:45:36.377Z,64.60
2022-08-14T23:47:53.221Z,64.70
2022-08-14T23:50:03.611Z,64.80
2022-08-14T23:52:56.062Z,64.80
2022-08-14T23:54:54.047Z,64.60
2022-08-14T23:57:06.736Z,64.60
2022-08-14T23:59:21.980Z,64.40
